createdAt,value
2019-03-19T00:00:05.814Z,4.78
2019-03-19T00:01:05.826Z,4.78
2019-03-19T00:02:05.796Z,4.73
2019-03-19T00:03:05.783Z,4.69
2019-03-19T00:04:05.773Z,4.73
2019-03-19T00:05:05.759Z,4.65
2019-03-19T00:06:05.809Z,4.67
2019-03-19T00:07:05.732Z,4.69
2019-03-19T00:08:05.732Z,4.60
2019-03-19T00:09:05.737Z,4.59
2019-03-19T00:10:05.715Z,4.59
2019-03-19T00:11:05.709Z,4.54
2019-03-19T00:12:05.718Z,4.47
2019-03-19T00:13:05.675Z,4.55
2019-03-19T00:14:05.667Z,4.58
2019-03-19T00:15:05.649Z,4.51
2019-03-19T00:16:05.794Z,4.54
2019-03-19T00:17:05.660Z,4.47
2019-03-19T00:18:05.618Z,4.58
2019-03-19T00:19:05.600Z,4.62
2019-03-19T00:20:05.588Z,4.60
2019-03-19T00:21:05.639Z,4.60
2019-03-19T00:22:05.565Z,4.67
2019-03-19T00:23:05.560Z,4.66
2019-03-19T00:24:05.555Z,4.62
2019-03-19T00:25:05.534Z,4.63
2019-03-19T00:26:05.528Z,4.62
2019-03-19T00:27:05.532Z,4.54
2019-03-19T00:28:05.506Z,4.54
2019-03-19T00:29:05.495Z,4.60
2019-03-19T00:30:05.477Z,4.59
2019-03-19T00:31:05.480Z,4.60
2019-03-19T00:32:05.608Z,4.60
2019-03-19T00:33:05.447Z,4.59
2019-03-19T00:34:05.436Z,4.65
2019-03-19T00:35:05.426Z,4.59
2019-03-19T00:36:05.433Z,4.62
2019-03-19T00:37:05.404Z,4.58
2019-03-19T00:38:05.418Z,4.72
2019-03-19T00:39:05.454Z,4.72
2019-03-19T00:40:05.374Z,4.69
2019-03-19T00:41:05.357Z,4.63
2019-03-19T00:42:05.348Z,4.69
2019-03-19T00:43:05.347Z,4.60
2019-03-19T00:44:05.326Z,4.60
2019-03-19T00:45:05.347Z,4.66
2019-03-19T00:46:05.307Z,4.66
2019-03-19T00:47:05.293Z,4.70
2019-03-19T00:48:05.278Z,4.62
2019-03-19T00:49:06.789Z,4.73
2019-03-19T00:50:05.307Z,4.59
2019-03-19T00:51:05.244Z,4.59
2019-03-19T00:52:05.234Z,4.55
2019-03-19T00:53:05.257Z,4.51
2019-03-19T00:54:05.217Z,4.54
2019-03-19T00:55:05.232Z,4.50
2019-03-19T00:56:05.202Z,4.42
2019-03-19T00:57:05.182Z,4.48
2019-03-19T00:58:05.191Z,4.42
2019-03-19T00:59:05.182Z,4.54
2019-03-19T01:00:05.152Z,4.42
2019-03-19T01:01:05.170Z,4.34
2019-03-19T01:02:05.131Z,4.34
2019-03-19T01:03:05.110Z,4.42
2019-03-19T01:04:05.105Z,4.30
2019-03-19T01:05:05.091Z,4.41
2019-03-19T01:06:05.127Z,4.50
2019-03-19T01:07:05.072Z,4.42
2019-03-19T01:08:05.061Z,4.47
2019-03-19T01:09:05.049Z,4.37
2019-03-19T01:10:05.040Z,4.18
2019-03-19T01:11:05.046Z,4.33
2019-03-19T01:12:05.033Z,4.29
2019-03-19T01:13:05.113Z,4.30
2019-03-19T01:14:05.045Z,4.20
2019-03-19T01:15:04.977Z,4.32
2019-03-19T01:16:04.971Z,4.23
2019-03-19T01:17:04.978Z,4.16
2019-03-19T01:18:04.950Z,4.26
2019-03-19T01:19:04.946Z,4.27
2019-03-19T01:20:04.935Z,4.29
2019-03-19T01:21:04.925Z,4.20
2019-03-19T01:22:04.956Z,4.23
2019-03-19T01:23:04.889Z,4.16
2019-03-19T01:24:04.887Z,4.15
2019-03-19T01:25:04.883Z,4.22
2019-03-19T01:26:04.860Z,4.22
2019-03-19T01:27:04.846Z,4.24
2019-03-19T01:28:04.855Z,4.16
2019-03-19T01:29:04.828Z,4.26
2019-03-19T01:30:04.812Z,4.32
2019-03-19T01:31:04.797Z,4.27
2019-03-19T01:32:04.817Z,4.22
2019-03-19T01:33:04.811Z,4.26
2019-03-19T01:34:04.775Z,4.24
2019-03-19T01:35:04.757Z,4.26
2019-03-19T01:36:04.772Z,4.20
2019-03-19T01:37:04.731Z,4.32
2019-03-19T01:38:04.758Z,4.20
2019-03-19T01:39:04.708Z,4.22
2019-03-19T01:40:04.697Z,4.27
2019-03-19T01:41:04.698Z,4.27
2019-03-19T01:42:04.688Z,4.26
2019-03-19T01:43:04.668Z,4.29
2019-03-19T01:44:04.682Z,4.33
2019-03-19T01:45:04.646Z,4.18
2019-03-19T01:46:04.638Z,4.29
2019-03-19T01:47:04.629Z,4.34
2019-03-19T01:48:04.609Z,4.34
2019-03-19T01:49:04.661Z,4.40
2019-03-19T01:50:04.602Z,4.37
2019-03-19T01:51:04.591Z,4.37
2019-03-19T01:52:04.568Z,4.37
2019-03-19T01:53:04.567Z,4.36
2019-03-19T01:54:04.570Z,4.33
2019-03-19T01:55:04.666Z,4.30
2019-03-19T01:56:05.519Z,4.44
2019-03-19T01:57:04.518Z,4.40
2019-03-19T01:58:04.496Z,4.44
2019-03-19T01:59:04.489Z,4.47
2019-03-19T02:00:04.483Z,4.45
2019-03-19T02:01:04.507Z,4.48
2019-03-19T02:02:04.459Z,4.48
2019-03-19T02:03:04.440Z,4.40
2019-03-19T02:04:04.431Z,4.54
2019-03-19T02:05:04.426Z,4.47
2019-03-19T02:06:04.427Z,4.48
2019-03-19T02:07:04.417Z,4.45
2019-03-19T02:08:04.394Z,4.42
2019-03-19T02:09:04.378Z,4.48
2019-03-19T02:10:04.366Z,4.41
2019-03-19T02:11:04.382Z,4.41
2019-03-19T02:12:04.339Z,4.44
2019-03-19T02:13:04.335Z,4.50
2019-03-19T02:14:04.321Z,4.45
2019-03-19T02:15:04.311Z,4.42
2019-03-19T02:16:04.315Z,4.47
2019-03-19T02:17:04.288Z,4.47
2019-03-19T02:18:04.271Z,4.47
2019-03-19T02:19:04.260Z,4.45
2019-03-19T02:20:04.259Z,4.34
2019-03-19T02:21:04.265Z,4.47
2019-03-19T02:22:04.282Z,4.42
2019-03-19T02:23:04.745Z,4.33
2019-03-19T02:24:04.206Z,4.51
2019-03-19T02:25:04.199Z,4.44
2019-03-19T02:26:04.182Z,4.42
2019-03-19T02:27:04.171Z,4.41
2019-03-19T02:28:04.204Z,4.47
2019-03-19T02:29:04.152Z,4.50
2019-03-19T02:30:04.147Z,4.40
2019-03-19T02:31:04.135Z,4.44
2019-03-19T02:32:04.122Z,4.45
2019-03-19T02:33:04.126Z,4.45
2019-03-19T02:34:04.122Z,4.47
2019-03-19T02:35:04.089Z,4.45
2019-03-19T02:36:04.075Z,4.41
2019-03-19T02:37:04.064Z,4.27
2019-03-19T02:38:04.080Z,4.42
2019-03-19T02:39:04.042Z,4.41
2019-03-19T02:40:04.050Z,4.40
2019-03-19T02:41:04.014Z,4.42
2019-03-19T02:42:04.008Z,4.29
2019-03-19T02:43:03.994Z,4.37
2019-03-19T02:44:04.014Z,4.40
2019-03-19T02:45:03.997Z,4.36
2019-03-19T02:46:03.972Z,4.44
2019-03-19T02:47:03.965Z,4.34
2019-03-19T02:48:03.956Z,4.36
2019-03-19T02:49:03.936Z,4.27
2019-03-19T02:50:03.937Z,4.32
2019-03-19T02:51:03.909Z,4.36
2019-03-19T02:52:03.893Z,4.29
2019-03-19T02:53:03.914Z,4.29
2019-03-19T02:54:03.874Z,4.20
2019-03-19T02:55:03.890Z,4.27
2019-03-19T02:56:03.962Z,4.24
2019-03-19T02:57:03.845Z,4.23
2019-03-19T02:58:03.829Z,4.20
2019-03-19T02:59:03.823Z,4.20
2019-03-19T03:00:03.865Z,4.20
2019-03-19T03:01:03.798Z,4.24
2019-03-19T03:02:03.790Z,4.30
2019-03-19T03:03:03.780Z,4.26
2019-03-19T03:04:03.772Z,4.30
2019-03-19T03:05:03.754Z,4.27
2019-03-19T03:06:03.759Z,4.22
2019-03-19T03:07:03.724Z,4.14
2019-03-19T03:08:03.716Z,4.16
2019-03-19T03:09:03.714Z,4.23
2019-03-19T03:10:03.694Z,4.22
2019-03-19T03:11:03.725Z,4.15
2019-03-19T03:12:03.669Z,4.09
2019-03-19T03:13:03.662Z,4.05
2019-03-19T03:14:03.646Z,4.12
2019-03-19T03:15:03.638Z,4.24
2019-03-19T03:16:03.679Z,4.18
2019-03-19T03:17:03.619Z,4.08
2019-03-19T03:18:03.609Z,4.09
2019-03-19T03:19:03.599Z,4.06
2019-03-19T03:20:03.612Z,4.08
2019-03-19T03:21:03.615Z,4.06
2019-03-19T03:22:03.601Z,4.05
2019-03-19T03:23:03.549Z,4.00
2019-03-19T03:24:03.566Z,4.04
2019-03-19T03:25:03.525Z,4.06
2019-03-19T03:26:03.536Z,4.05
2019-03-19T03:27:03.666Z,3.97
2019-03-19T03:28:03.522Z,3.97
2019-03-19T03:29:03.490Z,4.00
2019-03-19T03:30:03.476Z,3.98
2019-03-19T03:31:03.462Z,3.98
2019-03-19T03:32:03.476Z,3.96
2019-03-19T03:33:03.448Z,3.97
2019-03-19T03:34:03.427Z,3.94
2019-03-19T03:35:03.424Z,3.97
2019-03-19T03:36:03.402Z,4.02
2019-03-19T03:37:03.450Z,3.96
2019-03-19T03:38:03.383Z,3.93
2019-03-19T03:39:03.370Z,3.88
2019-03-19T03:40:03.383Z,3.90
2019-03-19T03:41:03.354Z,3.97
2019-03-19T03:42:03.357Z,3.96
2019-03-19T03:43:03.359Z,4.00
2019-03-19T03:44:03.321Z,4.06
2019-03-19T03:45:03.305Z,3.97
2019-03-19T03:46:03.297Z,4.04
2019-03-19T03:47:03.287Z,4.02
2019-03-19T03:48:03.324Z,3.98
2019-03-19T03:49:03.270Z,4.00
2019-03-19T03:50:03.249Z,4.00
2019-03-19T03:51:03.238Z,4.00
2019-03-19T03:52:03.224Z,3.94
2019-03-19T03:53:03.220Z,3.96
2019-03-19T03:54:03.224Z,4.02
2019-03-19T03:55:03.225Z,4.04
2019-03-19T03:56:03.179Z,4.08
2019-03-19T03:57:03.187Z,4.09
2019-03-19T03:58:03.189Z,4.06
2019-03-19T03:59:03.185Z,4.05
2019-03-19T04:00:03.133Z,4.06
2019-03-19T04:01:03.127Z,4.00
2019-03-19T04:02:03.120Z,4.04
2019-03-19T04:03:03.105Z,4.06
2019-03-19T04:04:03.101Z,4.11
2019-03-19T04:05:03.131Z,4.04
2019-03-19T04:06:03.077Z,4.05
2019-03-19T04:07:03.082Z,4.05
2019-03-19T04:08:03.044Z,4.04
2019-03-19T04:09:03.034Z,4.00
2019-03-19T04:10:03.043Z,4.00
2019-03-19T04:11:03.100Z,4.02
2019-03-19T04:12:03.005Z,4.08
2019-03-19T04:13:03.006Z,4.00
2019-03-19T04:14:02.986Z,4.04
2019-03-19T04:15:02.967Z,3.97
2019-03-19T04:16:02.964Z,4.06
2019-03-19T04:17:02.991Z,4.00
2019-03-19T04:18:02.938Z,3.97
2019-03-19T04:19:02.936Z,4.02
2019-03-19T04:20:02.915Z,4.02
2019-03-19T04:21:02.927Z,4.04
2019-03-19T04:22:02.897Z,4.06
2019-03-19T04:23:02.944Z,4.02
2019-03-19T04:24:02.877Z,4.05
2019-03-19T04:25:02.863Z,4.04
2019-03-19T04:26:02.886Z,4.06
2019-03-19T04:27:15.484Z,4.05
2019-03-19T04:28:03.833Z,4.12
2019-03-19T04:29:02.820Z,4.06
2019-03-19T04:30:02.805Z,4.12
2019-03-19T04:31:02.793Z,4.08
2019-03-19T04:32:02.822Z,4.08
2019-03-19T04:33:02.869Z,4.04
2019-03-19T04:34:02.759Z,4.05
2019-03-19T04:35:02.747Z,4.08
2019-03-19T04:36:02.741Z,4.20
2019-03-19T04:37:02.728Z,4.11
2019-03-19T04:38:02.768Z,4.06
2019-03-19T04:39:02.704Z,4.09
2019-03-19T04:40:02.699Z,4.04
2019-03-19T04:41:02.681Z,4.08
2019-03-19T04:42:02.672Z,4.06
2019-03-19T04:43:02.664Z,4.09
2019-03-19T04:44:02.666Z,4.16
2019-03-19T04:45:02.636Z,4.08
2019-03-19T04:46:02.626Z,4.12
2019-03-19T04:47:02.664Z,4.02
2019-03-19T04:48:03.718Z,4.08
2019-03-19T04:49:02.589Z,4.06
2019-03-19T04:50:02.575Z,4.05
2019-03-19T04:51:02.570Z,4.06
2019-03-19T04:52:02.561Z,3.98
2019-03-19T04:53:02.564Z,4.02
2019-03-19T04:54:02.580Z,4.04
2019-03-19T04:55:02.519Z,3.97
2019-03-19T04:56:02.513Z,4.05
2019-03-19T04:57:02.502Z,4.02
2019-03-19T04:58:02.536Z,4.08
2019-03-19T04:59:02.474Z,4.08
2019-03-19T05:00:02.468Z,4.09
2019-03-19T05:01:02.463Z,4.08
2019-03-19T05:02:02.445Z,4.11
2019-03-19T05:03:02.430Z,4.14
2019-03-19T05:04:02.442Z,4.11
2019-03-19T05:05:02.423Z,4.09
2019-03-19T05:06:02.405Z,4.02
2019-03-19T05:07:02.396Z,4.12
2019-03-19T05:08:02.420Z,4.11
2019-03-19T05:09:02.376Z,4.06
2019-03-19T05:10:02.350Z,4.05
2019-03-19T05:11:02.345Z,4.08
2019-03-19T05:12:02.328Z,4.06
2019-03-19T05:13:02.442Z,4.12
2019-03-19T05:14:02.306Z,4.05
2019-03-19T05:15:02.304Z,4.05
2019-03-19T05:16:02.294Z,4.08
2019-03-19T05:17:02.279Z,4.05
2019-03-19T05:18:02.266Z,4.06
2019-03-19T05:19:02.279Z,4.09
2019-03-19T05:20:02.239Z,4.15
2019-03-19T05:21:02.227Z,4.05
2019-03-19T05:22:02.226Z,4.14
2019-03-19T05:23:02.206Z,4.16
2019-03-19T05:24:02.216Z,4.16
2019-03-19T05:25:02.189Z,4.14
2019-03-19T05:26:02.172Z,4.15
2019-03-19T05:27:02.163Z,4.22
2019-03-19T05:28:02.157Z,4.18
2019-03-19T05:29:02.188Z,4.33
2019-03-19T05:30:02.138Z,4.16
2019-03-19T05:31:02.121Z,4.24
2019-03-19T05:32:02.113Z,4.30
2019-03-19T05:33:02.102Z,4.26
2019-03-19T05:34:02.100Z,4.32
2019-03-19T05:35:02.101Z,4.37
2019-03-19T05:36:02.067Z,4.24
2019-03-19T05:37:02.060Z,4.23
2019-03-19T05:38:02.056Z,4.22
2019-03-19T05:39:02.029Z,4.11
2019-03-19T05:40:02.086Z,4.26
2019-03-19T05:41:02.012Z,4.24
2019-03-19T05:42:02.003Z,4.30
2019-03-19T05:43:01.988Z,4.29
2019-03-19T05:44:01.982Z,4.18
2019-03-19T05:45:01.971Z,4.30
2019-03-19T05:46:01.985Z,4.23
2019-03-19T05:47:01.953Z,4.30
2019-03-19T05:48:01.935Z,4.33
2019-03-19T05:49:01.919Z,4.27
2019-03-19T05:50:01.910Z,4.37
2019-03-19T05:51:01.932Z,4.26
2019-03-19T05:52:01.891Z,4.27
2019-03-19T05:53:01.884Z,4.27
2019-03-19T05:54:01.865Z,4.33
2019-03-19T05:55:01.862Z,4.23
2019-03-19T05:56:01.865Z,4.18
2019-03-19T05:57:01.920Z,4.20
2019-03-19T05:58:01.825Z,4.18
2019-03-19T05:59:01.813Z,4.22
2019-03-19T06:00:01.803Z,4.23
2019-03-19T06:01:01.791Z,4.26
2019-03-19T06:02:01.805Z,4.20
2019-03-19T06:03:01.776Z,4.24
2019-03-19T06:04:01.765Z,4.18
2019-03-19T06:05:01.748Z,4.26
2019-03-19T06:06:01.736Z,4.16
2019-03-19T06:07:01.746Z,4.16
2019-03-19T06:08:01.744Z,4.16
2019-03-19T06:09:01.708Z,4.20
2019-03-19T06:10:01.696Z,4.22
2019-03-19T06:11:01.676Z,4.24
2019-03-19T06:12:01.668Z,4.23
2019-03-19T06:13:01.709Z,4.29
2019-03-19T06:14:01.644Z,4.23
2019-03-19T06:15:01.632Z,4.36
2019-03-19T06:16:01.626Z,4.36
2019-03-19T06:17:01.618Z,4.33
2019-03-19T06:18:01.605Z,4.42
2019-03-19T06:19:01.620Z,4.26
2019-03-19T06:20:01.586Z,4.42
2019-03-19T06:21:01.568Z,4.36
2019-03-19T06:22:01.562Z,4.36
2019-03-19T06:23:01.570Z,4.45
2019-03-19T06:24:01.573Z,4.27
2019-03-19T06:25:01.526Z,4.34
2019-03-19T06:26:01.516Z,4.32
2019-03-19T06:27:01.502Z,4.41
2019-03-19T06:28:01.497Z,4.41
2019-03-19T06:29:01.512Z,4.40
2019-03-19T06:30:01.481Z,4.44
2019-03-19T06:31:01.503Z,4.45
2019-03-19T06:32:01.456Z,4.44
2019-03-19T06:33:01.459Z,4.44
2019-03-19T06:34:01.556Z,4.41
2019-03-19T06:35:01.418Z,4.45
2019-03-19T06:36:01.408Z,4.54
2019-03-19T06:37:01.389Z,4.55
2019-03-19T06:38:01.381Z,4.62
2019-03-19T06:39:01.368Z,4.45
2019-03-19T06:40:01.385Z,4.62
2019-03-19T06:41:01.351Z,4.52
2019-03-19T06:42:01.335Z,4.51
2019-03-19T06:43:01.329Z,4.48
2019-03-19T06:44:01.320Z,4.58
2019-03-19T06:45:01.338Z,4.55
2019-03-19T06:46:01.297Z,4.52
2019-03-19T06:47:01.289Z,4.58
2019-03-19T06:48:01.270Z,4.55
2019-03-19T06:49:01.262Z,4.54
2019-03-19T06:50:01.274Z,4.59
2019-03-19T06:51:01.254Z,4.59
2019-03-19T06:52:01.229Z,4.58
2019-03-19T06:53:01.218Z,4.55
2019-03-19T06:54:01.206Z,4.54
2019-03-19T06:55:01.239Z,4.54
2019-03-19T06:56:01.181Z,4.55
2019-03-19T06:57:01.171Z,4.55
2019-03-19T06:58:10.497Z,4.54
2019-03-19T06:59:02.177Z,4.54
2019-03-19T07:00:01.184Z,4.65
2019-03-19T07:01:01.160Z,4.63
2019-03-19T07:02:01.116Z,4.70
2019-03-19T07:03:01.104Z,4.67
2019-03-19T07:04:01.103Z,4.59
2019-03-19T07:05:01.089Z,4.65
2019-03-19T07:06:01.098Z,4.65
2019-03-19T07:07:01.088Z,4.66
2019-03-19T07:08:01.054Z,4.73
2019-03-19T07:09:01.044Z,4.54
2019-03-19T07:10:01.035Z,4.59
2019-03-19T07:11:01.066Z,4.59
2019-03-19T07:12:01.676Z,4.55
2019-03-19T07:13:01.001Z,4.66
2019-03-19T07:14:00.988Z,4.67
2019-03-19T07:15:00.984Z,4.75
2019-03-19T07:16:00.966Z,4.84
2019-03-19T07:17:00.951Z,4.73
2019-03-19T07:18:00.966Z,4.78
2019-03-19T07:19:00.929Z,4.82
2019-03-19T07:20:00.918Z,4.85
2019-03-19T07:21:00.913Z,4.84
2019-03-19T07:22:00.938Z,4.86
2019-03-19T07:23:00.886Z,4.86
2019-03-19T07:24:00.878Z,4.94
2019-03-19T07:25:00.897Z,4.89
2019-03-19T07:26:00.852Z,4.92
2019-03-19T07:27:00.844Z,4.88
2019-03-19T07:28:00.862Z,4.85
2019-03-19T07:29:00.824Z,4.80
2019-03-19T07:30:00.805Z,4.70
2019-03-19T07:31:01.078Z,4.80
2019-03-19T07:32:00.790Z,4.80
2019-03-19T07:33:00.835Z,4.75
2019-03-19T07:34:00.767Z,4.86
2019-03-19T07:35:00.758Z,4.89
2019-03-19T07:36:00.743Z,5.02
2019-03-19T07:37:00.744Z,5.07
2019-03-19T07:38:00.740Z,5.22
2019-03-19T07:39:00.754Z,5.18
2019-03-19T07:40:00.699Z,5.12
2019-03-19T07:41:00.686Z,5.27
2019-03-19T07:42:00.694Z,5.28
2019-03-19T07:43:00.686Z,5.35
2019-03-19T07:44:00.657Z,5.42
2019-03-19T07:45:00.687Z,5.36
2019-03-19T07:46:00.626Z,5.28
2019-03-19T07:47:00.615Z,5.27
2019-03-19T07:48:00.614Z,5.30
2019-03-19T07:49:00.595Z,5.35
2019-03-19T07:50:00.581Z,5.42
2019-03-19T07:51:00.635Z,5.43
2019-03-19T07:52:00.566Z,5.49
2019-03-19T07:53:00.674Z,5.51
2019-03-19T07:54:00.546Z,5.48
2019-03-19T07:55:00.600Z,5.48
2019-03-19T07:56:00.519Z,5.49
2019-03-19T07:57:00.508Z,5.56
2019-03-19T07:58:00.491Z,5.51
2019-03-19T07:59:00.509Z,5.53
2019-03-19T08:00:00.478Z,5.57
2019-03-19T08:01:00.458Z,5.60
2019-03-19T08:02:00.450Z,5.58
2019-03-19T08:03:00.437Z,5.61
2019-03-19T08:04:00.457Z,5.56
2019-03-19T08:05:00.422Z,5.49
2019-03-19T08:06:00.410Z,5.43
2019-03-19T08:07:00.396Z,5.45
2019-03-19T08:08:00.382Z,5.48
2019-03-19T08:09:00.465Z,5.46
2019-03-19T08:10:00.357Z,5.42
2019-03-19T08:11:00.352Z,5.57
2019-03-19T08:12:00.365Z,5.53
2019-03-19T08:13:00.329Z,5.65
2019-03-19T08:14:00.317Z,5.61
2019-03-19T08:15:00.330Z,5.60
2019-03-19T08:16:00.317Z,5.57
2019-03-19T08:17:00.288Z,5.49
2019-03-19T08:18:00.277Z,5.54
2019-03-19T08:19:00.257Z,5.53
2019-03-19T08:20:00.337Z,5.53
2019-03-19T08:21:00.259Z,5.67
2019-03-19T08:22:00.231Z,5.67
2019-03-19T08:23:00.214Z,5.68
2019-03-19T08:24:00.202Z,5.72
2019-03-19T08:25:00.347Z,5.75
2019-03-19T08:26:00.183Z,5.72
2019-03-19T08:27:00.169Z,5.71
2019-03-19T08:28:00.161Z,5.67
2019-03-19T08:29:00.166Z,5.82
2019-03-19T08:30:00.137Z,5.82
2019-03-19T08:31:00.149Z,5.79
2019-03-19T08:32:00.147Z,5.79
2019-03-19T08:33:00.136Z,5.85
2019-03-19T08:34:00.097Z,5.86
2019-03-19T08:35:00.161Z,5.85
2019-03-19T08:36:09.004Z,5.91
2019-03-19T08:37:01.057Z,5.90
2019-03-19T08:38:00.180Z,5.97
2019-03-19T08:39:00.037Z,6.12
2019-03-19T08:40:00.032Z,6.18
2019-03-19T08:41:00.081Z,6.19
2019-03-19T08:42:00.011Z,6.30
2019-03-19T08:43:00.001Z,6.38
2019-03-19T08:44:00.018Z,6.41
2019-03-19T08:44:59.977Z,6.36
2019-03-19T08:45:59.972Z,6.49
2019-03-19T08:46:59.958Z,6.48
2019-03-19T08:47:59.947Z,6.51
2019-03-19T08:48:59.959Z,6.31
2019-03-19T08:49:59.924Z,6.30
2019-03-19T08:50:59.908Z,6.36
2019-03-19T08:51:59.891Z,6.38
2019-03-19T08:52:59.880Z,6.41
2019-03-19T08:53:59.892Z,6.49
2019-03-19T08:54:59.862Z,6.52
2019-03-19T08:56:01.104Z,6.52
2019-03-19T08:56:59.858Z,6.49
2019-03-19T08:57:59.822Z,6.59
2019-03-19T08:59:05.860Z,6.51
2019-03-19T09:00:00.823Z,6.59
2019-03-19T09:00:59.789Z,6.59
2019-03-19T09:01:59.781Z,6.46
2019-03-19T09:02:59.771Z,6.55
2019-03-19T09:03:59.779Z,6.54
2019-03-19T09:04:59.798Z,6.55
2019-03-19T09:05:59.736Z,6.61
2019-03-19T09:06:59.734Z,6.61
2019-03-19T09:07:59.706Z,6.73
2019-03-19T09:08:59.697Z,6.77
2019-03-19T09:09:59.717Z,6.77
2019-03-19T09:10:59.675Z,6.76
2019-03-19T09:11:59.672Z,6.74
2019-03-19T09:12:59.702Z,6.89
2019-03-19T09:13:59.639Z,6.92
2019-03-19T09:14:59.641Z,6.95
2019-03-19T09:15:59.613Z,7.03
2019-03-19T09:16:59.631Z,6.91
2019-03-19T09:17:59.592Z,7.13
2019-03-19T09:18:59.583Z,7.15
2019-03-19T09:19:59.577Z,7.13
2019-03-19T09:20:59.566Z,7.17
2019-03-19T09:21:59.588Z,7.17
2019-03-19T09:22:59.539Z,7.09
2019-03-19T09:23:59.542Z,7.05
2019-03-19T09:24:59.515Z,7.13
2019-03-19T09:25:59.512Z,7.23
2019-03-19T09:26:59.487Z,7.40
2019-03-19T09:27:59.511Z,7.34
2019-03-19T09:28:59.472Z,7.31
2019-03-19T09:29:59.456Z,7.25
2019-03-19T09:30:59.462Z,7.20
2019-03-19T09:31:59.492Z,7.25
2019-03-19T09:32:59.426Z,7.25
2019-03-19T09:33:59.423Z,7.31
2019-03-19T09:34:59.403Z,7.23
2019-03-19T09:35:59.399Z,7.27
2019-03-19T09:36:59.377Z,7.16
2019-03-19T09:37:59.423Z,7.17
2019-03-19T09:38:59.363Z,7.23
2019-03-19T09:39:59.348Z,7.27
2019-03-19T09:40:59.331Z,7.24
2019-03-19T09:41:59.323Z,7.24
2019-03-19T09:42:59.330Z,7.27
2019-03-19T09:43:59.299Z,7.25
2019-03-19T09:44:59.298Z,7.23
2019-03-19T09:45:59.284Z,7.32
2019-03-19T09:46:59.299Z,7.25
2019-03-19T09:47:59.278Z,7.25
2019-03-19T09:48:59.244Z,7.27
2019-03-19T09:49:59.230Z,7.24
2019-03-19T09:50:59.223Z,7.20
2019-03-19T09:51:59.237Z,7.25
2019-03-19T09:52:59.204Z,7.27
2019-03-19T09:53:59.190Z,7.20
2019-03-19T09:54:59.185Z,7.34
2019-03-19T09:55:59.173Z,7.45
2019-03-19T09:56:59.216Z,7.40
2019-03-19T09:57:59.143Z,7.34
2019-03-19T09:58:59.141Z,7.28
2019-03-19T09:59:59.117Z,7.35
2019-03-19T10:00:59.106Z,7.42
2019-03-19T10:01:59.233Z,7.46
2019-03-19T10:02:59.092Z,7.53
2019-03-19T10:03:59.073Z,7.58
2019-03-19T10:04:59.079Z,7.68
2019-03-19T10:05:59.056Z,7.71
2019-03-19T10:07:05.957Z,7.82
2019-03-19T10:08:00.066Z,7.87
2019-03-19T10:08:59.047Z,8.08
2019-03-19T10:09:59.030Z,8.01
2019-03-19T10:10:58.995Z,7.97
2019-03-19T10:11:58.990Z,8.00
2019-03-19T10:12:58.984Z,8.05
2019-03-19T10:13:58.969Z,8.11
2019-03-19T10:14:58.978Z,8.22
2019-03-19T10:15:58.946Z,8.28
2019-03-19T10:16:58.955Z,8.28
2019-03-19T10:17:58.930Z,8.26
2019-03-19T10:18:58.910Z,8.34
2019-03-19T10:19:58.900Z,8.04
2019-03-19T10:20:58.914Z,7.92
2019-03-19T10:21:58.874Z,7.90
2019-03-19T10:22:58.863Z,7.95
2019-03-19T10:23:58.856Z,7.87
2019-03-19T10:24:58.844Z,7.93
2019-03-19T10:25:58.867Z,7.87
2019-03-19T10:26:58.840Z,7.87
2019-03-19T10:27:58.813Z,7.95
2019-03-19T10:28:58.799Z,7.90
2019-03-19T10:29:58.813Z,8.01
2019-03-19T10:30:58.772Z,8.00
2019-03-19T10:31:58.810Z,8.05
2019-03-19T10:32:58.751Z,8.08
2019-03-19T10:33:58.742Z,8.04
2019-03-19T10:34:58.728Z,8.11
2019-03-19T10:35:58.742Z,8.18
2019-03-19T10:36:58.708Z,8.18
2019-03-19T10:37:58.725Z,8.25
2019-03-19T10:38:58.694Z,8.18
2019-03-19T10:39:58.676Z,8.36
2019-03-19T10:40:58.668Z,8.29
2019-03-19T10:41:58.666Z,8.40
2019-03-19T10:42:58.667Z,8.41
2019-03-19T10:43:58.630Z,8.25
2019-03-19T10:44:58.617Z,8.38
2019-03-19T10:45:58.611Z,8.28
2019-03-19T10:46:58.595Z,8.30
2019-03-19T10:47:58.616Z,8.38
2019-03-19T10:48:58.579Z,8.20
2019-03-19T10:49:58.561Z,8.36
2019-03-19T10:50:58.564Z,8.20
2019-03-19T10:51:58.563Z,8.26
2019-03-19T10:52:58.563Z,8.19
2019-03-19T10:53:58.524Z,8.37
2019-03-19T10:54:58.504Z,8.25
2019-03-19T10:55:58.498Z,8.22
2019-03-19T10:56:58.486Z,8.19
2019-03-19T10:57:58.472Z,8.30
2019-03-19T10:58:58.483Z,8.18
2019-03-19T10:59:58.490Z,8.16
2019-03-19T11:00:58.438Z,8.00
2019-03-19T11:01:58.428Z,8.00
2019-03-19T11:02:58.427Z,7.97
2019-03-19T11:03:58.454Z,7.98
2019-03-19T11:04:58.475Z,7.97
2019-03-19T11:05:58.386Z,8.00
2019-03-19T11:06:58.386Z,8.10
2019-03-19T11:07:58.377Z,8.07
2019-03-19T11:08:58.392Z,8.07
2019-03-19T11:09:58.372Z,8.10
2019-03-19T11:10:58.341Z,8.18
2019-03-19T11:11:58.317Z,8.26
2019-03-19T11:12:58.424Z,8.23
2019-03-19T11:13:58.319Z,8.22
2019-03-19T11:14:58.431Z,8.26
2019-03-19T11:15:58.280Z,8.08
2019-03-19T11:16:58.257Z,8.11
2019-03-19T11:17:58.244Z,8.15
2019-03-19T11:18:58.258Z,8.33
2019-03-19T11:19:58.240Z,8.25
2019-03-19T11:20:58.233Z,8.22
2019-03-19T11:21:58.209Z,8.19
2019-03-19T11:22:58.202Z,8.23
2019-03-19T11:23:58.187Z,8.23
2019-03-19T11:24:58.177Z,8.30
2019-03-19T11:25:58.185Z,8.26
2019-03-19T11:26:58.163Z,8.15
2019-03-19T11:27:58.160Z,8.10
2019-03-19T11:28:58.205Z,8.10
2019-03-19T11:30:00.026Z,8.10
2019-03-19T11:30:58.099Z,8.19
2019-03-19T11:31:58.135Z,8.15
2019-03-19T11:32:58.086Z,8.08
2019-03-19T11:33:58.069Z,8.20
2019-03-19T11:34:58.078Z,8.26
2019-03-19T11:35:58.065Z,8.40
2019-03-19T11:36:58.301Z,8.52
2019-03-19T11:37:58.100Z,8.50
2019-03-19T11:38:58.039Z,8.63
2019-03-19T11:39:58.018Z,8.65
2019-03-19T11:40:58.013Z,8.62
2019-03-19T11:41:58.046Z,8.71
2019-03-19T11:42:57.973Z,8.76
2019-03-19T11:43:57.982Z,8.91
2019-03-19T11:44:57.954Z,8.99
2019-03-19T11:45:57.937Z,9.05
2019-03-19T11:46:57.921Z,9.20
2019-03-19T11:47:57.942Z,9.24
2019-03-19T11:48:57.906Z,9.26
2019-03-19T11:49:57.910Z,9.26
2019-03-19T11:50:57.888Z,9.14
2019-03-19T11:51:57.916Z,9.08
2019-03-19T11:52:57.892Z,8.94
2019-03-19T11:53:57.845Z,8.86
2019-03-19T11:54:57.836Z,8.80
2019-03-19T11:55:57.822Z,8.79
2019-03-19T11:56:57.819Z,8.63
2019-03-19T11:57:58.020Z,8.56
2019-03-19T11:58:57.787Z,8.40
2019-03-19T11:59:57.772Z,8.33
2019-03-19T12:00:57.773Z,8.40
2019-03-19T12:01:57.785Z,8.36
2019-03-19T12:02:57.790Z,8.38
2019-03-19T12:03:57.740Z,8.43
2019-03-19T12:04:57.730Z,8.40
2019-03-19T12:05:57.712Z,8.48
2019-03-19T12:06:57.720Z,8.56
2019-03-19T12:07:57.690Z,8.53
2019-03-19T12:08:57.701Z,8.59
2019-03-19T12:09:57.668Z,8.56
2019-03-19T12:10:57.651Z,8.63
2019-03-19T12:11:57.641Z,8.68
2019-03-19T12:12:57.625Z,8.73
2019-03-19T12:13:57.641Z,8.76
2019-03-19T12:14:57.611Z,8.74
2019-03-19T12:15:57.593Z,8.71
2019-03-19T12:16:57.586Z,8.65
2019-03-19T12:17:57.573Z,8.73
2019-03-19T12:18:57.624Z,8.84
2019-03-19T12:19:57.550Z,8.74
2019-03-19T12:20:57.549Z,8.81
2019-03-19T12:21:57.524Z,8.81
2019-03-19T12:22:57.512Z,8.71
2019-03-19T12:23:57.552Z,8.80
2019-03-19T12:24:57.562Z,8.74
2019-03-19T12:25:57.481Z,8.77
2019-03-19T12:26:57.506Z,8.61
2019-03-19T12:27:57.459Z,8.63
2019-03-19T12:28:57.492Z,8.58
2019-03-19T12:29:57.437Z,8.58
2019-03-19T12:30:57.429Z,8.65
2019-03-19T12:31:57.417Z,8.68
2019-03-19T12:32:57.407Z,8.59
2019-03-19T12:33:57.407Z,8.58
2019-03-19T12:34:57.438Z,8.65
2019-03-19T12:35:57.922Z,8.68
2019-03-19T12:36:57.354Z,8.62
2019-03-19T12:37:57.345Z,8.59
2019-03-19T12:38:57.349Z,8.61
2019-03-19T12:39:57.323Z,8.62
2019-03-19T12:40:57.340Z,8.56
2019-03-19T12:41:57.295Z,8.53
2019-03-19T12:42:57.291Z,8.45
2019-03-19T12:43:57.284Z,8.43
2019-03-19T12:44:57.268Z,8.43
2019-03-19T12:45:57.256Z,8.44
2019-03-19T12:46:57.264Z,8.59
2019-03-19T12:47:57.239Z,8.47
2019-03-19T12:48:57.225Z,8.50
2019-03-19T12:49:57.217Z,8.68
2019-03-19T12:50:57.225Z,8.65
2019-03-19T12:51:57.184Z,8.66
2019-03-19T12:52:57.172Z,8.61
2019-03-19T12:53:57.184Z,8.62
2019-03-19T12:54:57.153Z,8.70
2019-03-19T12:55:57.162Z,8.77
2019-03-19T12:56:57.134Z,8.80
2019-03-19T12:57:57.116Z,8.99
2019-03-19T12:58:57.105Z,8.91
2019-03-19T12:59:57.159Z,8.83
2019-03-19T13:00:57.123Z,8.73
2019-03-19T13:01:57.089Z,8.74
2019-03-19T13:02:57.063Z,8.65
2019-03-19T13:03:57.056Z,8.59
2019-03-19T13:04:57.049Z,8.68
2019-03-19T13:05:57.149Z,8.76
2019-03-19T13:06:57.025Z,8.71
2019-03-19T13:07:57.012Z,8.66
2019-03-19T13:08:56.998Z,8.59
2019-03-19T13:09:57.001Z,8.58
2019-03-19T13:10:56.971Z,8.50
2019-03-19T13:11:57.022Z,8.47
2019-03-19T13:12:56.954Z,8.65
2019-03-19T13:13:56.943Z,8.53
2019-03-19T13:14:56.934Z,8.62
2019-03-19T13:15:56.920Z,8.55
2019-03-19T13:16:56.928Z,8.61
2019-03-19T13:17:56.938Z,8.62